createdAt,value
2022-12-08T00:00:45.425Z,2.91
2022-12-08T00:01:48.747Z,2.89
2022-12-08T00:02:52.350Z,2.87
2022-12-08T00:03:55.520Z,2.83
2022-12-08T00:04:58.142Z,2.82
2022-12-08T00:06:00.987Z,2.77
2022-12-08T00:07:03.539Z,2.7
2022-12-08T00:08:06.553Z,2.64
2022-12-08T00:09:09.311Z,2.62
2022-12-08T00:10:47.590Z,2.61
2022-12-08T00:11:33.705Z,2.61
2022-12-08T00:12:36.460Z,2.61
2022-12-08T00:13:39.054Z,2.53
2022-12-08T00:14:41.644Z,2.33
2022-12-08T00:15:44.267Z,2.23
2022-12-08T00:16:47.109Z,2.18
2022-12-08T00:17:49.866Z,2.21
2022-12-08T00:18:52.474Z,2.26
2022-12-08T00:19:55.076Z,2.3
2022-12-08T00:20:57.649Z,2.32
2022-12-08T00:22:00.263Z,2.31
2022-12-08T00:23:02.907Z,2.34
2022-12-08T00:24:05.509Z,2.34
2022-12-08T00:25:08.090Z,2.36
2022-12-08T00:26:10.717Z,2.37
2022-12-08T00:27:13.328Z,2.4
2022-12-08T00:28:15.929Z,2.41
2022-12-08T00:29:18.624Z,2.45
2022-12-08T00:30:21.494Z,2.46
2022-12-08T00:31:24.327Z,2.44
2022-12-08T00:32:26.957Z,2.43
2022-12-08T00:33:29.545Z,2.42
2022-12-08T00:34:32.140Z,2.39
2022-12-08T00:35:43.533Z,2.41
2022-12-08T00:36:45.973Z,2.42
2022-12-08T00:37:48.516Z,2.4
2022-12-08T00:38:51.106Z,2.4
2022-12-08T00:39:53.881Z,2.39
2022-12-08T00:40:56.473Z,2.36
2022-12-08T00:41:59.154Z,2.39
2022-12-08T00:43:01.917Z,2.43
2022-12-08T00:44:04.539Z,2.46
2022-12-08T00:45:07.248Z,2.42
2022-12-08T00:46:10.162Z,2.41
2022-12-08T00:47:12.879Z,2.39
2022-12-08T00:48:15.532Z,2.38
2022-12-08T00:49:18.114Z,2.37
2022-12-08T00:50:20.763Z,2.34
2022-12-08T00:51:23.385Z,2.32
2022-12-08T00:52:25.962Z,2.29
2022-12-08T00:53:28.538Z,2.27
2022-12-08T00:54:31.088Z,2.24
2022-12-08T00:55:33.736Z,2.23
2022-12-08T00:56:36.331Z,2.24
2022-12-08T00:57:38.914Z,2.24
2022-12-08T00:58:41.481Z,2.24
2022-12-08T00:59:44.290Z,2.24
2022-12-08T01:00:47.094Z,2.26
2022-12-08T01:01:49.783Z,2.27
2022-12-08T01:02:52.639Z,2.28
2022-12-08T01:03:55.356Z,2.28
2022-12-08T01:04:57.986Z,2.26
2022-12-08T01:06:00.568Z,2.29
2022-12-08T01:07:03.187Z,2.32
2022-12-08T01:08:06.086Z,2.34
2022-12-08T01:09:08.840Z,2.31
2022-12-08T01:10:11.419Z,2.14
2022-12-08T01:11:13.993Z,2.02
2022-12-08T01:12:16.603Z,1.98
2022-12-08T01:13:19.237Z,1.98
2022-12-08T01:14:21.821Z,1.99
2022-12-08T01:15:27.919Z,2.02
2022-12-08T01:16:30.505Z,2.03
2022-12-08T01:17:33.186Z,2.01
2022-12-08T01:18:35.771Z,2.03
2022-12-08T01:19:38.360Z,2.05
2022-12-08T01:20:40.986Z,2.04
2022-12-08T01:21:43.630Z,2.05
2022-12-08T01:22:46.228Z,2.04
2022-12-08T01:23:48.843Z,2.03
2022-12-08T01:24:51.466Z,2
2022-12-08T01:25:54.060Z,2
2022-12-08T01:26:56.657Z,1.93
2022-12-08T01:27:59.204Z,1.9
2022-12-08T01:29:01.837Z,1.84
2022-12-08T01:30:05.489Z,1.81
2022-12-08T01:31:08.515Z,1.83
2022-12-08T01:32:11.267Z,1.85
2022-12-08T01:33:13.854Z,1.9
2022-12-08T01:34:16.514Z,1.93
2022-12-08T01:35:19.128Z,1.92
2022-12-08T01:36:21.753Z,1.89
2022-12-08T01:37:24.343Z,1.87
2022-12-08T01:38:26.958Z,1.88
2022-12-08T01:39:29.607Z,1.92
2022-12-08T01:40:32.240Z,1.97
2022-12-08T01:41:34.941Z,1.96
2022-12-08T01:42:37.478Z,1.98
2022-12-08T01:43:40.024Z,1.98
2022-12-08T01:44:42.608Z,2
2022-12-08T01:45:45.323Z,2
2022-12-08T01:46:51.571Z,1.99
2022-12-08T01:47:54.188Z,2.02
2022-12-08T01:48:56.857Z,2.04
2022-12-08T01:49:59.423Z,2.08
2022-12-08T01:51:02.039Z,2.1
2022-12-08T01:52:04.645Z,2.11
2022-12-08T01:53:07.262Z,2.1
2022-12-08T01:54:09.967Z,2.03
2022-12-08T01:55:12.564Z,2
2022-12-08T01:56:15.164Z,1.98
2022-12-08T01:57:18.780Z,2
2022-12-08T01:58:21.329Z,2.07
2022-12-08T01:59:23.980Z,2.11
2022-12-08T02:00:26.526Z,2.15
2022-12-08T02:01:29.312Z,2.17
2022-12-08T02:02:32.139Z,2.22
2022-12-08T02:03:34.969Z,2.23
2022-12-08T02:04:37.558Z,2.23
2022-12-08T02:05:40.178Z,2.22
2022-12-08T02:06:42.790Z,2.26
2022-12-08T02:07:45.560Z,2.27
2022-12-08T02:08:48.260Z,2.3
2022-12-08T02:09:50.948Z,2.34
2022-12-08T02:10:53.585Z,2.38
2022-12-08T02:11:56.160Z,2.39
2022-12-08T02:12:58.745Z,2.38
2022-12-08T02:14:01.345Z,2.4
2022-12-08T02:15:06.906Z,2.43
2022-12-08T02:16:09.802Z,2.43
2022-12-08T02:17:12.544Z,2.44
2022-12-08T02:18:15.193Z,2.45
2022-12-08T02:19:31.726Z,2.49
2022-12-08T02:20:34.207Z,2.52
2022-12-08T02:21:36.789Z,2.55
2022-12-08T02:22:39.418Z,2.55
2022-12-08T02:23:42.107Z,2.57
2022-12-08T02:24:44.707Z,2.61
2022-12-08T02:25:47.344Z,2.66
2022-12-08T02:26:49.955Z,2.68
2022-12-08T02:27:52.610Z,2.72
2022-12-08T02:28:55.303Z,2.77
2022-12-08T02:29:57.884Z,2.82
2022-12-08T02:31:00.649Z,2.85
2022-12-08T02:32:03.332Z,2.87
2022-12-08T02:33:05.928Z,2.89
2022-12-08T02:34:08.603Z,2.9
2022-12-08T02:35:11.308Z,2.91
2022-12-08T02:36:13.916Z,2.9
2022-12-08T02:37:16.525Z,2.9
2022-12-08T02:38:19.141Z,2.9
2022-12-08T02:39:21.823Z,2.9
2022-12-08T02:40:24.439Z,2.82
2022-12-08T02:41:27.120Z,2.81
2022-12-08T02:42:29.699Z,2.84
2022-12-08T02:43:32.337Z,2.84
2022-12-08T02:44:34.922Z,2.85
2022-12-08T02:45:37.604Z,2.86
2022-12-08T02:46:40.493Z,2.85
2022-12-08T02:47:43.228Z,2.86
2022-12-08T02:48:45.852Z,2.9
2022-12-08T02:49:48.480Z,2.91
2022-12-08T02:50:51.104Z,2.9
2022-12-08T02:51:53.712Z,2.89
2022-12-08T02:52:56.342Z,2.88
2022-12-08T02:53:58.942Z,2.86
2022-12-08T02:55:01.561Z,2.86
2022-12-08T02:56:04.139Z,2.83
2022-12-08T02:57:06.714Z,2.81
2022-12-08T02:58:09.303Z,2.77
2022-12-08T02:59:12.508Z,2.76
2022-12-08T03:00:15.101Z,2.75
2022-12-08T03:01:18.017Z,2.77
2022-12-08T03:02:20.891Z,2.77
2022-12-08T03:03:23.851Z,2.76
2022-12-08T03:04:26.475Z,2.73
2022-12-08T03:05:29.082Z,2.72
2022-12-08T03:06:31.752Z,2.71
2022-12-08T03:07:34.363Z,2.7
2022-12-08T03:08:36.963Z,2.68
2022-12-08T03:09:39.648Z,2.69
2022-12-08T03:10:42.252Z,2.7
2022-12-08T03:11:44.801Z,2.71
2022-12-08T03:12:47.411Z,2.72
2022-12-08T03:13:50.028Z,2.75
2022-12-08T03:14:52.666Z,2.74
2022-12-08T03:15:55.442Z,2.75
2022-12-08T03:16:58.129Z,2.76
2022-12-08T03:18:00.796Z,2.76
2022-12-08T03:19:03.447Z,2.74
2022-12-08T03:20:07.111Z,2.73
2022-12-08T03:21:10.494Z,2.72
2022-12-08T03:22:13.026Z,2.74
2022-12-08T03:23:15.672Z,2.76
2022-12-08T03:24:18.285Z,2.76
2022-12-08T03:25:20.901Z,2.76
2022-12-08T03:26:23.551Z,2.76
2022-12-08T03:27:26.158Z,2.78
2022-12-08T03:28:28.808Z,2.8
2022-12-08T03:29:31.431Z,2.81
2022-12-08T03:30:34.052Z,2.83
2022-12-08T03:31:36.917Z,2.84
2022-12-08T03:32:39.620Z,2.83
2022-12-08T03:33:42.187Z,2.83
2022-12-08T03:34:44.840Z,2.83
2022-12-08T03:35:47.476Z,2.83
2022-12-08T03:36:50.102Z,2.83
2022-12-08T03:37:52.784Z,2.82
2022-12-08T03:38:55.374Z,2.8
2022-12-08T03:39:57.989Z,2.78
2022-12-08T03:41:00.636Z,2.75
2022-12-08T03:42:03.225Z,2.75
2022-12-08T03:43:05.863Z,2.73
2022-12-08T03:44:08.521Z,2.72
2022-12-08T03:45:11.124Z,2.72
2022-12-08T03:46:13.840Z,2.73
2022-12-08T03:47:16.515Z,2.76
2022-12-08T03:48:19.159Z,2.76
2022-12-08T03:49:21.817Z,2.78
2022-12-08T03:50:24.562Z,2.79
2022-12-08T03:51:27.165Z,2.8
2022-12-08T03:52:29.821Z,2.82
2022-12-08T03:53:32.492Z,2.84
2022-12-08T03:54:35.117Z,2.85
2022-12-08T03:55:37.772Z,2.88
2022-12-08T03:56:40.350Z,2.91
2022-12-08T03:57:42.939Z,2.92
2022-12-08T03:58:45.547Z,2.95
2022-12-08T03:59:48.371Z,2.97
2022-12-08T04:00:50.998Z,3
2022-12-08T04:01:53.873Z,3.02
2022-12-08T04:02:56.833Z,3.01
2022-12-08T04:03:59.511Z,3.02
2022-12-08T04:05:02.098Z,3.03
2022-12-08T04:06:04.728Z,3.05
2022-12-08T04:07:07.310Z,3.07
2022-12-08T04:08:10.277Z,3.07
2022-12-08T04:09:13.067Z,3.01
2022-12-08T04:10:15.698Z,2.99
2022-12-08T04:11:18.299Z,3
2022-12-08T04:12:20.910Z,2.96
2022-12-08T04:13:23.520Z,2.95
2022-12-08T04:14:26.057Z,2.96
2022-12-08T04:15:28.803Z,2.98
2022-12-08T04:16:31.663Z,3
2022-12-08T04:17:34.347Z,3.03
2022-12-08T04:18:36.977Z,3.03
2022-12-08T04:19:39.630Z,3.05
2022-12-08T04:20:42.198Z,3.03
2022-12-08T04:21:44.898Z,2.99
2022-12-08T04:22:47.771Z,2.99
2022-12-08T04:23:52.130Z,2.97
2022-12-08T04:25:01.018Z,2.99
2022-12-08T04:26:03.698Z,3
2022-12-08T04:27:06.290Z,3.03
2022-12-08T04:28:08.876Z,3.06
2022-12-08T04:29:11.449Z,3.08
2022-12-08T04:30:14.054Z,3.09
2022-12-08T04:31:16.912Z,3.12
2022-12-08T04:32:19.628Z,3.16
2022-12-08T04:33:22.276Z,3.17
2022-12-08T04:34:24.903Z,3.19
2022-12-08T04:35:27.483Z,3.21
2022-12-08T04:36:30.121Z,3.21
2022-12-08T04:37:32.784Z,3.23
2022-12-08T04:38:35.345Z,3.24
2022-12-08T04:39:41.562Z,3.25
2022-12-08T04:40:44.022Z,3.26
2022-12-08T04:41:46.610Z,3.28
2022-12-08T04:42:49.209Z,3.28
2022-12-08T04:43:51.861Z,3.29
2022-12-08T04:44:54.540Z,3.28
2022-12-08T04:45:57.151Z,3.28
2022-12-08T04:47:00.046Z,3.29
2022-12-08T04:48:04.215Z,3.3
2022-12-08T04:49:06.592Z,3.31
2022-12-08T04:50:09.256Z,3.32
2022-12-08T04:51:11.841Z,3.33
2022-12-08T04:52:14.451Z,3.32
2022-12-08T04:53:17.055Z,3.32
2022-12-08T04:54:19.669Z,3.32
2022-12-08T04:55:22.305Z,3.32
2022-12-08T04:56:24.940Z,3.32
2022-12-08T04:57:27.601Z,3.29
2022-12-08T04:58:30.419Z,3.29
2022-12-08T04:59:33.017Z,3.29
2022-12-08T05:00:35.655Z,3.28
2022-12-08T05:01:38.739Z,3.27
2022-12-08T05:02:41.894Z,3.29
2022-12-08T05:03:44.574Z,3.32
2022-12-08T05:04:47.163Z,3.35
2022-12-08T05:05:49.780Z,3.36
2022-12-08T05:06:52.382Z,3.35
2022-12-08T05:07:55.133Z,3.29
2022-12-08T05:08:57.808Z,3.23
2022-12-08T05:10:00.445Z,3.22
2022-12-08T05:11:03.740Z,3.24
2022-12-08T05:12:06.405Z,3.28
2022-12-08T05:13:09.002Z,3.31
2022-12-08T05:14:17.087Z,3.28
2022-12-08T05:15:19.861Z,3.32
2022-12-08T05:16:22.655Z,3.33
2022-12-08T05:17:25.344Z,3.34
2022-12-08T05:18:27.946Z,3.35
2022-12-08T05:19:38.627Z,3.34
2022-12-08T05:20:40.763Z,3.35
2022-12-08T05:21:47.933Z,3.36
2022-12-08T05:22:49.984Z,3.37
2022-12-08T05:23:52.701Z,3.38
2022-12-08T05:24:55.221Z,3.39
2022-12-08T05:25:58.023Z,3.41
2022-12-08T05:27:00.682Z,3.45
2022-12-08T05:28:40.042Z,3.47
2022-12-08T05:29:25.136Z,3.47
2022-12-08T05:30:27.918Z,3.49
2022-12-08T05:31:30.652Z,3.46
2022-12-08T05:32:33.308Z,3.43
2022-12-08T05:33:35.902Z,3.43
2022-12-08T05:34:38.519Z,3.42
2022-12-08T05:35:41.733Z,3.44
2022-12-08T05:36:44.362Z,3.45
2022-12-08T05:37:47.013Z,3.46
2022-12-08T05:38:49.615Z,3.46
2022-12-08T05:39:52.231Z,3.46
2022-12-08T05:41:00.530Z,3.45
2022-12-08T05:42:05.025Z,3.47
2022-12-08T05:43:07.621Z,3.48
2022-12-08T05:44:10.223Z,3.47
2022-12-08T05:45:12.799Z,3.47
2022-12-08T05:46:15.642Z,3.47
2022-12-08T05:47:18.325Z,3.46
2022-12-08T05:48:20.932Z,3.48
2022-12-08T05:49:23.602Z,3.48
2022-12-08T05:50:44.911Z,3.49
2022-12-08T05:51:47.209Z,3.46
2022-12-08T05:52:49.786Z,3.44
2022-12-08T05:53:52.421Z,3.42
2022-12-08T05:54:55.567Z,3.42
2022-12-08T05:55:58.161Z,3.43
2022-12-08T05:57:00.720Z,3.43
2022-12-08T05:58:08.365Z,3.41
2022-12-08T05:59:10.659Z,3.42
2022-12-08T06:00:13.220Z,3.43
2022-12-08T06:01:15.868Z,3.45
2022-12-08T06:02:22.748Z,3.46
2022-12-08T06:03:28.715Z,3.47
2022-12-08T06:04:31.407Z,3.49
2022-12-08T06:05:34.054Z,3.51
2022-12-08T06:06:36.727Z,3.52
2022-12-08T06:07:39.505Z,3.5
2022-12-08T06:08:42.456Z,3.44
2022-12-08T06:09:45.057Z,3.4
2022-12-08T06:10:47.706Z,3.36
2022-12-08T06:11:50.306Z,3.35
2022-12-08T06:12:52.902Z,3.35
2022-12-08T06:13:55.997Z,3.35
2022-12-08T06:14:58.579Z,3.34
2022-12-08T06:16:01.811Z,3.33
2022-12-08T06:17:06.319Z,3.3
2022-12-08T06:18:09.155Z,3.3
2022-12-08T06:19:11.791Z,3.32
2022-12-08T06:20:14.391Z,3.33
2022-12-08T06:21:22.509Z,3.34
2022-12-08T06:22:24.752Z,3.24
2022-12-08T06:23:27.337Z,3.16
2022-12-08T06:24:29.963Z,3.16
2022-12-08T06:25:33.158Z,3.15
2022-12-08T06:26:35.706Z,3.17
2022-12-08T06:27:38.335Z,3.17
2022-12-08T06:28:41.561Z,3.11
2022-12-08T06:29:44.795Z,3.11
2022-12-08T06:30:47.963Z,3.17
2022-12-08T06:31:50.758Z,3.19
2022-12-08T06:32:53.431Z,3.23
2022-12-08T06:33:56.017Z,3.26
2022-12-08T06:34:58.623Z,3.28
2022-12-08T06:36:01.271Z,3.26
2022-12-08T06:37:03.899Z,3.27
2022-12-08T06:38:06.519Z,3.27
2022-12-08T06:39:09.192Z,3.26
2022-12-08T06:40:15.326Z,3.25
2022-12-08T06:41:27.771Z,3.28
2022-12-08T06:42:29.918Z,3.28
2022-12-08T06:43:32.494Z,3.29
2022-12-08T06:44:35.076Z,3.31
2022-12-08T06:45:38.486Z,3.33
2022-12-08T06:46:41.162Z,3.35
2022-12-08T06:47:44.007Z,3.38
2022-12-08T06:48:46.560Z,3.41
2022-12-08T06:49:49.423Z,3.43
2022-12-08T06:50:52.501Z,3.45
2022-12-08T06:51:54.921Z,3.45
2022-12-08T06:53:05.908Z,3.46
2022-12-08T06:54:08.653Z,3.48
2022-12-08T06:55:42.964Z,3.47
2022-12-08T06:56:32.916Z,3.49
2022-12-08T06:57:38.913Z,3.52
2022-12-08T06:58:53.315Z,3.54
2022-12-08T06:59:55.482Z,3.53
2022-12-08T07:01:02.940Z,3.52
2022-12-08T07:02:05.447Z,3.51
2022-12-08T07:03:08.170Z,3.47
2022-12-08T07:04:10.758Z,3.47
2022-12-08T07:05:13.354Z,3.46
2022-12-08T07:06:15.969Z,3.48
2022-12-08T07:07:19.148Z,3.39
2022-12-08T07:08:27.245Z,3.33
2022-12-08T07:09:31.115Z,3.25
2022-12-08T07:10:33.455Z,3.23
2022-12-08T07:11:41.647Z,3.26
2022-12-08T07:12:44.035Z,3.29
2022-12-08T07:13:52.181Z,3.31
2022-12-08T07:14:54.354Z,3.35
2022-12-08T07:15:56.997Z,3.4
2022-12-08T07:16:59.868Z,3.42
2022-12-08T07:18:08.191Z,3.42
2022-12-08T07:19:10.353Z,3.44
2022-12-08T07:20:13.544Z,3.46
2022-12-08T07:21:16.111Z,3.48
2022-12-08T07:22:18.741Z,3.49
2022-12-08T07:23:21.643Z,3.51
2022-12-08T07:24:25.797Z,3.53
2022-12-08T07:25:28.134Z,3.55
2022-12-08T07:26:30.735Z,3.56
2022-12-08T07:27:34.892Z,3.6
2022-12-08T07:28:38.011Z,3.61
2022-12-08T07:29:40.641Z,3.62
2022-12-08T07:30:43.396Z,3.65
2022-12-08T07:31:46.195Z,3.64
2022-12-08T07:32:49.055Z,3.64
2022-12-08T07:33:51.918Z,3.61
2022-12-08T07:34:54.576Z,3.58
2022-12-08T07:35:57.445Z,3.54
2022-12-08T07:37:00.027Z,3.48
2022-12-08T07:38:02.876Z,3.45
2022-12-08T07:39:05.506Z,3.42
2022-12-08T07:40:08.742Z,3.45
2022-12-08T07:41:17.785Z,3.44
2022-12-08T07:42:19.936Z,3.46
2022-12-08T07:43:22.501Z,3.49
2022-12-08T07:44:25.104Z,3.53
2022-12-08T07:45:32.168Z,3.57
2022-12-08T07:46:34.764Z,3.57
2022-12-08T07:47:37.458Z,3.57
2022-12-08T07:48:40.152Z,3.59
2022-12-08T07:49:42.973Z,3.6
2022-12-08T07:50:45.666Z,3.62
2022-12-08T07:51:48.239Z,3.63
2022-12-08T07:52:50.933Z,3.64
2022-12-08T07:53:55.636Z,3.61
2022-12-08T07:54:58.198Z,3.64
2022-12-08T07:56:00.812Z,3.66
2022-12-08T07:57:04.019Z,3.67
2022-12-08T07:58:06.599Z,3.68
2022-12-08T07:59:09.206Z,3.71
2022-12-08T08:00:11.812Z,3.71
2022-12-08T08:01:15.756Z,3.71
2022-12-08T08:02:26.415Z,3.71
2022-12-08T08:03:29.073Z,3.71
2022-12-08T08:04:31.923Z,3.74
2022-12-08T08:05:41.187Z,3.77
2022-12-08T08:06:43.373Z,3.83
2022-12-08T08:07:46.191Z,3.84
2022-12-08T08:08:49.102Z,3.85
2022-12-08T08:09:51.682Z,3.86
2022-12-08T08:10:54.319Z,3.86
2022-12-08T08:12:30.027Z,3.88
2022-12-08T08:13:18.969Z,3.9
2022-12-08T08:14:21.659Z,3.91
2022-12-08T08:15:24.181Z,3.92
2022-12-08T08:16:27.288Z,3.91
2022-12-08T08:17:32.735Z,3.92
2022-12-08T08:18:35.495Z,3.93
2022-12-08T08:19:38.621Z,3.94
2022-12-08T08:20:46.828Z,3.91
2022-12-08T08:21:49.026Z,3.91
2022-12-08T08:22:54.169Z,3.92
2022-12-08T08:23:56.529Z,3.95
2022-12-08T08:24:59.341Z,3.98
2022-12-08T08:26:02.525Z,4
2022-12-08T08:27:05.108Z,4.02
2022-12-08T08:28:10.231Z,4.04
2022-12-08T08:29:12.524Z,4.08
2022-12-08T08:30:21.448Z,4.11
2022-12-08T08:31:23.934Z,4.13
2022-12-08T08:32:26.646Z,4.14
2022-12-08T08:33:39.278Z,4.17
2022-12-08T08:34:48.059Z,4.21
2022-12-08T08:35:50.309Z,4.23
2022-12-08T08:36:53.151Z,4.25
2022-12-08T08:37:55.801Z,4.25
2022-12-08T08:38:58.971Z,4.26
2022-12-08T08:40:02.588Z,4.27
2022-12-08T08:41:05.822Z,4.25
2022-12-08T08:42:08.448Z,4.26
2022-12-08T08:43:11.376Z,4.28
2022-12-08T08:44:13.989Z,4.27
2022-12-08T08:45:16.551Z,4.29
2022-12-08T08:46:19.264Z,4.29
2022-12-08T08:47:22.731Z,4.31
2022-12-08T08:48:30.924Z,4.33
2022-12-08T08:49:33.182Z,4.33
2022-12-08T08:50:38.106Z,4.32
2022-12-08T08:51:40.544Z,4.33
2022-12-08T08:52:43.215Z,4.33
2022-12-08T08:53:45.786Z,4.35
2022-12-08T08:54:53.907Z,4.4
2022-12-08T08:55:56.131Z,4.43
2022-12-08T08:56:58.793Z,4.46
2022-12-08T08:58:01.406Z,4.47
2022-12-08T08:59:04.030Z,4.5
2022-12-08T09:00:07.962Z,4.53
2022-12-08T09:01:11.225Z,4.53
2022-12-08T09:02:14.104Z,4.54
2022-12-08T09:03:16.925Z,4.57
2022-12-08T09:04:19.615Z,4.59
2022-12-08T09:05:22.281Z,4.61
2022-12-08T09:06:25.222Z,4.64
2022-12-08T09:07:28.103Z,4.67
2022-12-08T09:08:31.065Z,4.71
2022-12-08T09:09:33.849Z,4.73
2022-12-08T09:10:36.465Z,4.76
2022-12-08T09:11:39.061Z,4.77
2022-12-08T09:12:41.721Z,4.79
2022-12-08T09:13:44.329Z,4.81
2022-12-08T09:14:47.464Z,4.82
2022-12-08T09:15:50.230Z,4.84
2022-12-08T09:16:52.911Z,4.84
2022-12-08T09:17:56.039Z,4.82
2022-12-08T09:18:58.606Z,4.81
2022-12-08T09:20:02.024Z,4.8
2022-12-08T09:21:10.807Z,4.8
2022-12-08T09:22:18.538Z,4.81
2022-12-08T09:23:20.785Z,4.81
2022-12-08T09:24:23.439Z,4.83
2022-12-08T09:25:26.069Z,4.87
2022-12-08T09:26:35.178Z,4.93
2022-12-08T09:27:37.420Z,4.99
2022-12-08T09:28:40.074Z,5.06
2022-12-08T09:29:42.727Z,5.11
2022-12-08T09:30:45.340Z,5.08
2022-12-08T09:31:48.204Z,5.12
2022-12-08T09:32:50.931Z,5.18
2022-12-08T09:33:53.621Z,5.24
2022-12-08T09:34:56.269Z,5.29
2022-12-08T09:35:58.829Z,5.32
2022-12-08T09:37:11.431Z,5.31
2022-12-08T09:38:13.643Z,5.33
2022-12-08T09:39:16.276Z,5.35
2022-12-08T09:40:19.487Z,5.38
2022-12-08T09:41:22.122Z,5.38
2022-12-08T09:42:24.724Z,5.41
2022-12-08T09:43:27.371Z,5.45
2022-12-08T09:44:30.067Z,5.49
2022-12-08T09:45:32.690Z,5.48
2022-12-08T09:46:35.550Z,5.46
2022-12-08T09:47:38.351Z,5.42
2022-12-08T09:48:40.962Z,5.39
2022-12-08T09:49:43.540Z,5.4
2022-12-08T09:50:46.135Z,5.4
2022-12-08T09:51:48.728Z,5.39
2022-12-08T09:52:51.552Z,5.41
2022-12-08T09:53:54.498Z,5.43
2022-12-08T09:54:57.353Z,5.45
2022-12-08T09:56:05.557Z,5.4
2022-12-08T09:57:07.766Z,5.43
2022-12-08T09:58:13.262Z,5.49
2022-12-08T09:59:15.781Z,5.55
2022-12-08T10:00:18.397Z,5.59
2022-12-08T10:01:21.182Z,5.62
2022-12-08T10:02:24.179Z,5.65
2022-12-08T10:03:27.147Z,5.66
2022-12-08T10:04:30.037Z,5.7
2022-12-08T10:05:32.943Z,5.72
2022-12-08T10:06:35.739Z,5.75
2022-12-08T10:07:38.537Z,5.77
2022-12-08T10:08:41.285Z,5.78
2022-12-08T10:09:54.526Z,5.8
2022-12-08T10:10:56.780Z,5.78
2022-12-08T10:11:59.378Z,5.78
2022-12-08T10:13:02.041Z,5.74
2022-12-08T10:14:04.648Z,5.79
2022-12-08T10:15:07.875Z,5.84
2022-12-08T10:16:24.368Z,5.86
2022-12-08T10:17:31.783Z,5.9
2022-12-08T10:18:34.369Z,5.93
2022-12-08T10:19:36.962Z,5.95
2022-12-08T10:20:39.599Z,5.98
2022-12-08T10:21:42.237Z,5.98
2022-12-08T10:22:45.462Z,5.97
2022-12-08T10:23:47.968Z,5.97
2022-12-08T10:24:50.698Z,5.96
2022-12-08T10:25:53.304Z,5.98
2022-12-08T10:26:56.564Z,6
2022-12-08T10:27:59.160Z,5.99
2022-12-08T10:29:01.806Z,5.99
2022-12-08T10:30:05.713Z,5.98
2022-12-08T10:31:14.297Z,5.98
2022-12-08T10:32:23.188Z,6
2022-12-08T10:33:25.347Z,5.98
2022-12-08T10:34:27.906Z,5.99
2022-12-08T10:35:30.562Z,6.01
2022-12-08T10:36:33.142Z,6.03
2022-12-08T10:37:35.805Z,6.04
2022-12-08T10:38:38.369Z,6.07
2022-12-08T10:39:40.992Z,6.09
2022-12-08T10:40:49.141Z,6.09
2022-12-08T10:41:51.450Z,6.1
2022-12-08T10:42:54.130Z,6.09
2022-12-08T10:43:56.775Z,6.1
2022-12-08T10:44:59.360Z,6.08
2022-12-08T10:46:01.969Z,6.07
2022-12-08T10:47:04.777Z,6.09
2022-12-08T10:48:07.550Z,6.06
2022-12-08T10:49:10.158Z,6.08
2022-12-08T10:50:13.814Z,6.08
2022-12-08T10:51:16.398Z,6.08
2022-12-08T10:52:19.053Z,6.06
2022-12-08T10:53:21.671Z,6.07
2022-12-08T10:54:27.775Z,6.09
2022-12-08T10:55:30.253Z,6.11
2022-12-08T10:56:33.184Z,6.12
2022-12-08T10:57:36.276Z,6.15
2022-12-08T10:58:38.909Z,6.19
2022-12-08T10:59:41.918Z,6.22
2022-12-08T11:00:51.536Z,6.18
2022-12-08T11:01:55.078Z,6.2
2022-12-08T11:02:58.133Z,6.2
2022-12-08T11:04:00.834Z,6.23
2022-12-08T11:05:03.486Z,6.24
2022-12-08T11:06:11.298Z,6.25
2022-12-08T11:07:13.630Z,6.27
2022-12-08T11:08:16.419Z,6.27
2022-12-08T11:09:19.745Z,6.23
2022-12-08T11:10:22.367Z,6.19
2022-12-08T11:11:29.841Z,6.16
2022-12-08T11:12:32.125Z,6.18
2022-12-08T11:13:34.765Z,6.18
2022-12-08T11:14:37.390Z,6.16
2022-12-08T11:15:40.096Z,6.19
2022-12-08T11:16:43.043Z,6.21
2022-12-08T11:17:45.786Z,6.25
2022-12-08T11:18:48.996Z,6.28
2022-12-08T11:19:51.587Z,6.3
2022-12-08T11:20:54.174Z,6.33
2022-12-08T11:21:56.849Z,6.34
2022-12-08T11:22:59.493Z,6.35
2022-12-08T11:24:02.161Z,6.36
2022-12-08T11:25:04.787Z,6.38
2022-12-08T11:26:07.394Z,6.39
2022-12-08T11:27:10.033Z,6.4
2022-12-08T11:28:12.684Z,6.44
2022-12-08T11:29:15.326Z,6.45
2022-12-08T11:30:19.388Z,6.48
2022-12-08T11:31:22.593Z,6.5
2022-12-08T11:32:25.350Z,6.51
2022-12-08T11:33:28.005Z,6.5
2022-12-08T11:34:30.644Z,6.49
2022-12-08T11:35:33.293Z,6.49
2022-12-08T11:36:35.892Z,6.48
2022-12-08T11:37:39.114Z,6.48
2022-12-08T11:38:41.803Z,6.5
2022-12-08T11:39:44.434Z,6.52
2022-12-08T11:40:50.694Z,6.55
2022-12-08T11:41:53.088Z,6.56
2022-12-08T11:42:55.711Z,6.58
2022-12-08T11:43:58.356Z,6.58
2022-12-08T11:45:01.042Z,6.6
2022-12-08T11:46:04.067Z,6.6
2022-12-08T11:47:06.775Z,6.62
2022-12-08T11:48:09.442Z,6.6
2022-12-08T11:49:12.084Z,6.6
2022-12-08T11:50:20.127Z,6.6
2022-12-08T11:51:22.463Z,6.58
2022-12-08T11:52:25.328Z,6.55
2022-12-08T11:53:28.762Z,6.55
2022-12-08T11:54:31.366Z,6.57
2022-12-08T11:55:44.028Z,6.53
2022-12-08T11:56:52.108Z,6.52
2022-12-08T11:57:56.227Z,6.56
2022-12-08T11:58:58.847Z,6.6
2022-12-08T12:00:02.999Z,6.61
2022-12-08T12:01:06.457Z,6.64
2022-12-08T12:02:10.869Z,6.64
2022-12-08T12:03:14.197Z,6.62
2022-12-08T12:04:16.857Z,6.56
2022-12-08T12:05:40.084Z,6.58
2022-12-08T12:06:55.253Z,6.63
2022-12-08T12:07:58.201Z,6.65
2022-12-08T12:09:01.174Z,6.68
2022-12-08T12:10:04.847Z,6.67
2022-12-08T12:11:08.369Z,6.69
2022-12-08T12:12:10.934Z,6.71
2022-12-08T12:13:13.616Z,6.72
2022-12-08T12:14:16.180Z,6.75
2022-12-08T12:15:18.854Z,6.77
2022-12-08T12:16:21.693Z,6.81
2022-12-08T12:17:24.404Z,6.84
2022-12-08T12:18:27.250Z,6.87
2022-12-08T12:19:30.054Z,6.89
2022-12-08T12:20:32.680Z,6.92
2022-12-08T12:21:35.868Z,6.94
2022-12-08T12:22:38.494Z,6.96
2022-12-08T12:23:41.111Z,6.98
2022-12-08T12:24:43.668Z,7
2022-12-08T12:25:46.286Z,7.02
2022-12-08T12:26:49.039Z,7.03
2022-12-08T12:27:57.912Z,7.04
2022-12-08T12:29:00.132Z,7.06
2022-12-08T12:30:13.565Z,7.04
2022-12-08T12:31:15.996Z,6.95
2022-12-08T12:32:18.725Z,6.93
2022-12-08T12:33:31.947Z,6.93
2022-12-08T12:34:35.131Z,6.93
2022-12-08T12:35:44.235Z,6.94
2022-12-08T12:36:46.372Z,6.95
2022-12-08T12:37:48.993Z,6.96
2022-12-08T12:38:51.548Z,6.96
2022-12-08T12:39:54.110Z,6.94
2022-12-08T12:40:56.900Z,6.93
2022-12-08T12:41:59.701Z,6.94
2022-12-08T12:43:03.131Z,6.92
2022-12-08T12:44:05.615Z,6.92
2022-12-08T12:45:08.155Z,6.93
2022-12-08T12:46:11.002Z,6.95
2022-12-08T12:47:14.820Z,6.97
2022-12-08T12:48:17.843Z,6.95
2022-12-08T12:49:31.045Z,6.93
2022-12-08T12:50:33.701Z,6.93
2022-12-08T12:51:37.746Z,6.93
2022-12-08T12:52:41.850Z,6.95
2022-12-08T12:53:49.859Z,6.98
2022-12-08T12:54:55.598Z,7
2022-12-08T12:55:57.892Z,7.02
2022-12-08T12:57:00.508Z,7.02
2022-12-08T12:58:03.644Z,7.03
2022-12-08T12:59:06.196Z,7.03
2022-12-08T13:00:09.893Z,7.05
2022-12-08T13:01:13.961Z,7.03
2022-12-08T13:02:20.330Z,7.03
2022-12-08T13:03:23.082Z,7.01
2022-12-08T13:04:26.095Z,7.01
2022-12-08T13:05:38.746Z,7
2022-12-08T13:06:44.806Z,6.99
2022-12-08T13:07:47.905Z,7.01
2022-12-08T13:08:50.585Z,7.01
2022-12-08T13:09:53.222Z,7.01
2022-12-08T13:10:55.825Z,7.02
2022-12-08T13:12:09.903Z,7.02
2022-12-08T13:13:12.052Z,7.01
2022-12-08T13:14:14.633Z,7.01
2022-12-08T13:15:17.802Z,7.01
2022-12-08T13:16:21.416Z,7.01
2022-12-08T13:17:24.206Z,7.01
2022-12-08T13:18:26.868Z,7.01
2022-12-08T13:19:33.048Z,7
2022-12-08T13:20:35.445Z,7.01
2022-12-08T13:21:38.081Z,7.03
2022-12-08T13:22:55.273Z,7.03
2022-12-08T13:23:58.201Z,7.03
2022-12-08T13:25:00.810Z,7.04
2022-12-08T13:26:03.425Z,7.05
2022-12-08T13:27:06.044Z,7.06
2022-12-08T13:28:08.686Z,7.02
2022-12-08T13:29:11.301Z,6.99
2022-12-08T13:30:13.982Z,6.99
2022-12-08T13:31:16.795Z,6.99
2022-12-08T13:32:19.546Z,6.99
2022-12-08T13:33:22.140Z,6.98
2022-12-08T13:34:28.355Z,6.98
2022-12-08T13:35:31.008Z,6.99
2022-12-08T13:36:33.597Z,6.98
2022-12-08T13:37:54.228Z,6.98
2022-12-08T13:38:57.043Z,6.99
2022-12-08T13:39:59.596Z,6.97
2022-12-08T13:41:02.245Z,6.96
2022-12-08T13:42:04.840Z,6.94
2022-12-08T13:43:07.451Z,6.94
2022-12-08T13:45:03.879Z,6.93
2022-12-08T13:46:26.483Z,6.92
2022-12-08T13:47:35.056Z,6.91
2022-12-08T13:48:56.123Z,6.89
2022-12-08T13:54:48.726Z,6.83
2022-12-08T13:57:01.472Z,6.82
2022-12-08T13:57:49.979Z,6.77
2022-12-08T13:58:52.706Z,6.76
2022-12-08T13:59:55.285Z,6.73
2022-12-08T14:00:57.848Z,6.73
2022-12-08T14:02:00.477Z,6.73
2022-12-08T14:03:03.396Z,6.72
2022-12-08T14:04:42.413Z,6.7
2022-12-08T14:06:10.292Z,6.69
2022-12-08T14:06:49.765Z,6.68
2022-12-08T14:07:52.515Z,6.66
2022-12-08T14:09:10.181Z,6.65
2022-12-08T14:10:13.297Z,6.65
2022-12-08T14:11:15.834Z,6.64
2022-12-08T14:12:18.432Z,6.63
2022-12-08T14:13:21.326Z,6.63
2022-12-08T14:15:01.030Z,6.61
2022-12-08T14:15:45.976Z,6.6
2022-12-08T14:16:48.620Z,6.59
2022-12-08T14:17:51.259Z,6.55